Foley, MO

9:48 PM CST on March 01, 2015 (GMT -0600)
Batchtown | Change Station
CLOSE
Current Station
Personal Weather Station
Location: Batchtown, IL
Elevation: 590 ft
Nearby Weather Stations

Elev 590 ft 39.04 °N, 90.67 °W | Updated 4 minutes ago

Partly Cloudy
Partly Cloudy
25.4 °F
Feels Like 25 °F
N
0.0
Wind Variable Wind from NNW
Gusts 2.0 mph

Today
High -- | Low -- °F
--% Chance of Precip.
Yesterday
High -- | Low -- °F
Precip. -- in
6:35 AM 5:55 PM
Waxing Gibbous, 89% visible
Pressure 30.47 in
Visibility 10.0 miles
Clouds Clear
Windchill 25 °F
Dew Point 21 °F
Humidity 84%
Rainfall 0.02 in
Snow Depth Not available.
UV 0 out of 12
Pollen .70 out of 12
Air Quality Not available.
Flu Activity Not available.
METAR KSET 020254Z AUTO 29004KT 10SM CLR M03/M06 A3046 RMK AO2 SLP317 T10281061 51026

More Conditions Fewer Conditions

Pressure 30.47 in
Visibility 10.0 miles
Clouds Clear
Windchill 25 °F
Dew Point 21 °F
Humidity 84%
Rainfall 0.02 in
Snow Depth Not available.
UV 0 out of 12
Pollen .70 out of 12
Air Quality Not available.
Flu Activity Not available.
METAR KSET 020254Z AUTO 29004KT 10SM CLR M03/M06 A3046 RMK AO2 SLP317 T10281061 51026

More Conditions Fewer Conditions

10-Day Weather Forecast

Almanac

Astronomy

Mar. 01, 2015 Rise Set
Actual Time
Civil Twilight
Nautical Twilight
Astronomical Twilight
Moon
Length of Visible Light
Length of Day
Tomorrow will be .
, % of the Moon is Illuminated

Today's Extremes

State Highs State Lows

Community

WunderPhotos

Upload Photos

1,801,719 photos uploaded!

WunderBlogs® & News

Nearby

Air Quality

  Air Quality AQ Index Pollutant
Not available.

Snow Depth

Station Depth Elevation

Earthquake Activity

City Distance Mag. Time & Date
Minimum magnitude displayed is 2.5.

Coastal Water Temperatures

Place Temperature

Nearby Weather Stations